sensor_id;sensor_type;location;lat;lon;timestamp;P1;durP1;ratioP1;P2;durP2;ratioP2
61905;SDS011;47863;55.766;37.672;2023-08-06T00:00:05;6.70;;;3.78;;
61905;SDS011;47863;55.766;37.672;2023-08-06T00:02:32;7.55;;;4.10;;
61905;SDS011;47863;55.766;37.672;2023-08-06T00:04:58;7.03;;;3.67;;
61905;SDS011;47863;55.766;37.672;2023-08-06T00:07:23;5.50;;;3.75;;
61905;SDS011;47863;55.766;37.672;2023-08-06T00:09:49;6.05;;;3.78;;
61905;SDS011;47863;55.766;37.672;2023-08-06T00:12:14;5.38;;;3.65;;
61905;SDS011;47863;55.766;37.672;2023-08-06T00:14:40;5.88;;;3.28;;
61905;SDS011;47863;55.766;37.672;2023-08-06T00:17:05;5.70;;;3.80;;
61905;SDS011;47863;55.766;37.672;2023-08-06T00:19:31;5.50;;;3.67;;
61905;SDS011;47863;55.766;37.672;2023-08-06T00:21:57;7.43;;;3.70;;
61905;SDS011;47863;55.766;37.672;2023-08-06T00:24:23;5.43;;;3.60;;
61905;SDS011;47863;55.766;37.672;2023-08-06T00:26:49;6.07;;;3.70;;
61905;SDS011;47863;55.766;37.672;2023-08-06T00:29:14;5.13;;;3.55;;
61905;SDS011;47863;55.766;37.672;2023-08-06T00:31:40;6.75;;;4.18;;
61905;SDS011;47863;55.766;37.672;2023-08-06T00:34:05;5.53;;;3.72;;
61905;SDS011;47863;55.766;37.672;2023-08-06T00:36:31;6.70;;;4.00;;
61905;SDS011;47863;55.766;37.672;2023-08-06T00:38:56;7.25;;;3.85;;
61905;SDS011;47863;55.766;37.672;2023-08-06T00:41:22;6.40;;;3.72;;
61905;SDS011;47863;55.766;37.672;2023-08-06T00:43:48;5.85;;;3.70;;
61905;SDS011;47863;55.766;37.672;2023-08-06T00:46:13;6.55;;;3.72;;
61905;SDS011;47863;55.766;37.672;2023-08-06T00:48:39;7.40;;;3.80;;
61905;SDS011;47863;55.766;37.672;2023-08-06T00:51:07;5.20;;;3.28;;
61905;SDS011;47863;55.766;37.672;2023-08-06T00:53:35;5.13;;;3.50;;
61905;SDS011;47863;55.766;37.672;2023-08-06T00:56:01;6.75;;;3.70;;
61905;SDS011;47863;55.766;37.672;2023-08-06T00:58:27;6.40;;;3.28;;
61905;SDS011;47863;55.766;37.672;2023-08-06T01:00:53;5.00;;;3.20;;
61905;SDS011;47863;55.766;37.672;2023-08-06T01:03:18;5.53;;;3.30;;
61905;SDS011;47863;55.766;37.672;2023-08-06T01:05:44;6.00;;;3.78;;
61905;SDS011;47863;55.766;37.672;2023-08-06T01:11:05;6.22;;;3.38;;
61905;SDS011;47863;55.766;37.672;2023-08-06T01:13:46;5.47;;;3.45;;
61905;SDS011;47863;55.766;37.672;2023-08-06T01:16:15;4.50;;;3.15;;
61905;SDS011;47863;55.766;37.672;2023-08-06T01:18:43;5.40;;;3.33;;
61905;SDS011;47863;55.766;37.672;2023-08-06T01:21:15;5.90;;;3.45;;
61905;SDS011;47863;55.766;37.672;2023-08-06T01:23:43;5.88;;;3.15;;
61905;SDS011;47863;55.766;37.672;2023-08-06T01:31:27;5.95;;;3.88;;
61905;SDS011;47863;55.766;37.672;2023-08-06T01:33:58;6.55;;;3.78;;
61905;SDS011;47863;55.766;37.672;2023-08-06T01:36:25;5.63;;;3.30;;
61905;SDS011;47863;55.766;37.672;2023-08-06T01:38:52;7.50;;;3.53;;
61905;SDS011;47863;55.766;37.672;2023-08-06T01:41:18;6.07;;;3.83;;
61905;SDS011;47863;55.766;37.672;2023-08-06T01:43:44;6.25;;;3.25;;
61905;SDS011;47863;55.766;37.672;2023-08-06T01:46:09;7.25;;;3.75;;
61905;SDS011;47863;55.766;37.672;2023-08-06T01:48:35;5.38;;;3.78;;
61905;SDS011;47863;55.766;37.672;2023-08-06T01:51:01;6.65;;;3.83;;
61905;SDS011;47863;55.766;37.672;2023-08-06T01:53:28;7.07;;;3.90;;
61905;SDS011;47863;55.766;37.672;2023-08-06T01:55:54;5.75;;;3.72;;
61905;SDS011;47863;55.766;37.672;2023-08-06T01:58:19;8.95;;;4.22;;
61905;SDS011;47863;55.766;37.672;2023-08-06T02:00:45;7.15;;;3.90;;
61905;SDS011;47863;55.766;37.672;2023-08-06T02:03:10;6.35;;;3.90;;
61905;SDS011;47863;55.766;37.672;2023-08-06T02:05:36;7.13;;;4.10;;
61905;SDS011;47863;55.766;37.672;2023-08-06T02:08:01;8.20;;;4.10;;
61905;SDS011;47863;55.766;37.672;2023-08-06T02:10:27;8.25;;;3.92;;
61905;SDS011;47863;55.766;37.672;2023-08-06T02:12:53;6.75;;;3.60;;
61905;SDS011;47863;55.766;37.672;2023-08-06T02:15:18;6.82;;;4.03;;
61905;SDS011;47863;55.766;37.672;2023-08-06T02:17:44;8.05;;;4.47;;
61905;SDS011;47863;55.766;37.672;2023-08-06T02:20:30;8.02;;;4.75;;
61905;SDS011;47863;55.766;37.672;2023-08-06T02:22:55;7.07;;;4.60;;
61905;SDS011;47863;55.766;37.672;2023-08-06T02:25:21;6.10;;;3.90;;
61905;SDS011;47863;55.766;37.672;2023-08-06T02:27:46;5.88;;;3.55;;
61905;SDS011;47863;55.766;37.672;2023-08-06T02:30:12;5.70;;;4.47;;
61905;SDS011;47863;55.766;37.672;2023-08-06T02:32:37;6.45;;;3.92;;
61905;SDS011;47863;55.766;37.672;2023-08-06T02:35:03;6.25;;;4.43;;
61905;SDS011;47863;55.766;37.672;2023-08-06T02:37:29;6.15;;;4.38;;
61905;SDS011;47863;55.766;37.672;2023-08-06T02:39:55;7.20;;;4.43;;
61905;SDS011;47863;55.766;37.672;2023-08-06T02:42:20;6.85;;;4.43;;
61905;SDS011;47863;55.766;37.672;2023-08-06T02:44:46;6.38;;;4.07;;
61905;SDS011;47863;55.766;37.672;2023-08-06T02:47:11;6.47;;;4.57;;
61905;SDS011;47863;55.766;37.672;2023-08-06T02:49:37;7.75;;;4.38;;
61905;SDS011;47863;55.766;37.672;2023-08-06T02:52:02;10.40;;;4.95;;
61905;SDS011;47863;55.766;37.672;2023-08-06T02:54:28;6.65;;;4.40;;
61905;SDS011;47863;55.766;37.672;2023-08-06T02:56:54;7.88;;;4.82;;
61905;SDS011;47863;55.766;37.672;2023-08-06T02:59:19;9.73;;;4.72;;
61905;SDS011;47863;55.766;37.672;2023-08-06T03:01:45;10.73;;;5.32;;
61905;SDS011;47863;55.766;37.672;2023-08-06T03:04:10;9.05;;;4.65;;
61905;SDS011;47863;55.766;37.672;2023-08-06T03:06:36;7.00;;;4.97;;
61905;SDS011;47863;55.766;37.672;2023-08-06T03:09:02;7.13;;;4.90;;
61905;SDS011;47863;55.766;37.672;2023-08-06T03:11:27;7.32;;;4.90;;
61905;SDS011;47863;55.766;37.672;2023-08-06T03:13:53;7.88;;;4.78;;
61905;SDS011;47863;55.766;37.672;2023-08-06T03:16:18;7.60;;;5.00;;
61905;SDS011;47863;55.766;37.672;2023-08-06T03:18:44;9.50;;;4.95;;
61905;SDS011;47863;55.766;37.672;2023-08-06T03:21:09;9.25;;;5.20;;
61905;SDS011;47863;55.766;37.672;2023-08-06T03:23:35;9.20;;;5.47;;
61905;SDS011;47863;55.766;37.672;2023-08-06T03:26:01;7.30;;;4.95;;
61905;SDS011;47863;55.766;37.672;2023-08-06T03:28:28;7.72;;;5.28;;
61905;SDS011;47863;55.766;37.672;2023-08-06T03:31:01;7.45;;;5.35;;
61905;SDS011;47863;55.766;37.672;2023-08-06T03:33:27;10.20;;;5.53;;
61905;SDS011;47863;55.766;37.672;2023-08-06T03:35:53;8.85;;;5.22;;
61905;SDS011;47863;55.766;37.672;2023-08-06T03:38:18;6.43;;;4.32;;
61905;SDS011;47863;55.766;37.672;2023-08-06T03:40:44;7.32;;;5.20;;
61905;SDS011;47863;55.766;37.672;2023-08-06T03:43:11;8.80;;;5.47;;
61905;SDS011;47863;55.766;37.672;2023-08-06T03:45:36;10.00;;;5.60;;
61905;SDS011;47863;55.766;37.672;2023-08-06T03:48:02;7.78;;;5.60;;
61905;SDS011;47863;55.766;37.672;2023-08-06T03:50:27;8.30;;;5.70;;
61905;SDS011;47863;55.766;37.672;2023-08-06T03:52:53;7.30;;;5.25;;
61905;SDS011;47863;55.766;37.672;2023-08-06T03:55:18;8.80;;;5.35;;
61905;SDS011;47863;55.766;37.672;2023-08-06T03:57:45;10.88;;;5.20;;
61905;SDS011;47863;55.766;37.672;2023-08-06T04:00:11;7.35;;;5.13;;
61905;SDS011;47863;55.766;37.672;2023-08-06T04:02:37;8.95;;;5.70;;
61905;SDS011;47863;55.766;37.672;2023-08-06T04:05:03;10.25;;;5.22;;
61905;SDS011;47863;55.766;37.672;2023-08-06T04:07:29;8.65;;;5.57;;
61905;SDS011;47863;55.766;37.672;2023-08-06T04:09:56;13.00;;;5.63;;
61905;SDS011;47863;55.766;37.672;2023-08-06T04:12:26;7.72;;;5.50;;
61905;SDS011;47863;55.766;37.672;2023-08-06T04:14:52;7.28;;;4.90;;
61905;SDS011;47863;55.766;37.672;2023-08-06T04:17:19;13.00;;;6.20;;
61905;SDS011;47863;55.766;37.672;2023-08-06T04:19:52;9.93;;;5.35;;
61905;SDS011;47863;55.766;37.672;2023-08-06T04:22:19;9.35;;;5.18;;
61905;SDS011;47863;55.766;37.672;2023-08-06T04:24:46;6.75;;;4.85;;
61905;SDS011;47863;55.766;37.672;2023-08-06T04:27:12;7.65;;;4.78;;
61905;SDS011;47863;55.766;37.672;2023-08-06T04:29:39;9.68;;;5.13;;
61905;SDS011;47863;55.766;37.672;2023-08-06T04:32:05;7.88;;;4.63;;
61905;SDS011;47863;55.766;37.672;2023-08-06T04:34:32;7.00;;;4.60;;
61905;SDS011;47863;55.766;37.672;2023-08-06T04:36:59;8.93;;;4.93;;
61905;SDS011;47863;55.766;37.672;2023-08-06T04:39:25;8.98;;;4.88;;
61905;SDS011;47863;55.766;37.672;2023-08-06T04:41:50;9.30;;;4.85;;
61905;SDS011;47863;55.766;37.672;2023-08-06T04:44:16;7.90;;;5.07;;
61905;SDS011;47863;55.766;37.672;2023-08-06T04:46:42;10.38;;;5.43;;
61905;SDS011;47863;55.766;37.672;2023-08-06T04:49:07;7.57;;;5.28;;
61905;SDS011;47863;55.766;37.672;2023-08-06T04:51:33;8.57;;;5.05;;
61905;SDS011;47863;55.766;37.672;2023-08-06T04:53:58;6.43;;;5.05;;
61905;SDS011;47863;55.766;37.672;2023-08-06T04:56:24;8.20;;;5.03;;
61905;SDS011;47863;55.766;37.672;2023-08-06T04:58:50;8.15;;;5.25;;
61905;SDS011;47863;55.766;37.672;2023-08-06T05:01:15;8.10;;;5.28;;
61905;SDS011;47863;55.766;37.672;2023-08-06T05:03:41;8.18;;;4.85;;
61905;SDS011;47863;55.766;37.672;2023-08-06T05:06:07;6.43;;;4.45;;
61905;SDS011;47863;55.766;37.672;2023-08-06T05:08:32;9.65;;;6.00;;
61905;SDS011;47863;55.766;37.672;2023-08-06T05:10:58;9.27;;;5.20;;
61905;SDS011;47863;55.766;37.672;2023-08-06T05:13:24;10.82;;;5.65;;
61905;SDS011;47863;55.766;37.672;2023-08-06T05:15:50;9.55;;;5.57;;
61905;SDS011;47863;55.766;37.672;2023-08-06T05:18:18;7.57;;;5.00;;
61905;SDS011;47863;55.766;37.672;2023-08-06T05:20:44;8.05;;;5.15;;
61905;SDS011;47863;55.766;37.672;2023-08-06T05:23:10;7.97;;;5.00;;
61905;SDS011;47863;55.766;37.672;2023-08-06T05:25:35;9.60;;;5.28;;
61905;SDS011;47863;55.766;37.672;2023-08-06T05:28:01;14.43;;;5.57;;
61905;SDS011;47863;55.766;37.672;2023-08-06T05:30:28;9.07;;;5.28;;
61905;SDS011;47863;55.766;37.672;2023-08-06T05:32:53;8.82;;;5.43;;
61905;SDS011;47863;55.766;37.672;2023-08-06T05:35:20;9.82;;;5.10;;
61905;SDS011;47863;55.766;37.672;2023-08-06T05:37:46;7.35;;;4.82;;
61905;SDS011;47863;55.766;37.672;2023-08-06T05:40:12;8.43;;;4.90;;
61905;SDS011;47863;55.766;37.672;2023-08-06T05:42:37;7.95;;;4.82;;
61905;SDS011;47863;55.766;37.672;2023-08-06T05:45:03;6.10;;;4.20;;
61905;SDS011;47863;55.766;37.672;2023-08-06T05:47:29;8.27;;;4.53;;
61905;SDS011;47863;55.766;37.672;2023-08-06T05:49:54;9.60;;;5.22;;
61905;SDS011;47863;55.766;37.672;2023-08-06T05:52:20;9.48;;;5.05;;
61905;SDS011;47863;55.766;37.672;2023-08-06T05:54:46;8.65;;;5.15;;
61905;SDS011;47863;55.766;37.672;2023-08-06T05:57:11;7.50;;;4.93;;
61905;SDS011;47863;55.766;37.672;2023-08-06T05:59:37;8.18;;;4.78;;
61905;SDS011;47863;55.766;37.672;2023-08-06T06:02:03;8.98;;;4.95;;
61905;SDS011;47863;55.766;37.672;2023-08-06T06:04:29;7.50;;;5.00;;
61905;SDS011;47863;55.766;37.672;2023-08-06T06:06:54;6.93;;;4.10;;
61905;SDS011;47863;55.766;37.672;2023-08-06T06:09:20;8.52;;;4.63;;
61905;SDS011;47863;55.766;37.672;2023-08-06T06:11:46;9.45;;;5.40;;
61905;SDS011;47863;55.766;37.672;2023-08-06T06:14:12;6.80;;;4.35;;
61905;SDS011;47863;55.766;37.672;2023-08-06T06:16:38;8.75;;;4.30;;
61905;SDS011;47863;55.766;37.672;2023-08-06T06:19:04;10.52;;;4.82;;
61905;SDS011;47863;55.766;37.672;2023-08-06T06:21:29;7.00;;;4.55;;
61905;SDS011;47863;55.766;37.672;2023-08-06T06:23:55;9.32;;;4.45;;
61905;SDS011;47863;55.766;37.672;2023-08-06T06:26:21;5.70;;;3.80;;
61905;SDS011;47863;55.766;37.672;2023-08-06T06:28:47;6.10;;;4.18;;
61905;SDS011;47863;55.766;37.672;2023-08-06T06:31:13;7.95;;;4.55;;
61905;SDS011;47863;55.766;37.672;2023-08-06T06:33:38;7.47;;;4.30;;
61905;SDS011;47863;55.766;37.672;2023-08-06T06:36:04;9.00;;;4.85;;
61905;SDS011;47863;55.766;37.672;2023-08-06T06:38:29;9.25;;;4.78;;
61905;SDS011;47863;55.766;37.672;2023-08-06T06:40:56;7.30;;;4.80;;
61905;SDS011;47863;55.766;37.672;2023-08-06T06:43:22;6.65;;;4.47;;
61905;SDS011;47863;55.766;37.672;2023-08-06T06:45:52;7.82;;;4.20;;
61905;SDS011;47863;55.766;37.672;2023-08-06T06:48:19;10.65;;;4.40;;
61905;SDS011;47863;55.766;37.672;2023-08-06T06:50:47;6.35;;;4.10;;
61905;SDS011;47863;55.766;37.672;2023-08-06T06:53:13;5.90;;;3.92;;
61905;SDS011;47863;55.766;37.672;2023-08-06T06:55:39;6.93;;;3.42;;
61905;SDS011;47863;55.766;37.672;2023-08-06T06:58:04;5.50;;;3.50;;
61905;SDS011;47863;55.766;37.672;2023-08-06T07:00:30;6.25;;;3.70;;
61905;SDS011;47863;55.766;37.672;2023-08-06T07:02:56;5.82;;;3.10;;
61905;SDS011;47863;55.766;37.672;2023-08-06T07:05:21;7.68;;;4.15;;
61905;SDS011;47863;55.766;37.672;2023-08-06T07:07:47;8.10;;;4.25;;
61905;SDS011;47863;55.766;37.672;2023-08-06T07:10:13;5.53;;;3.50;;
61905;SDS011;47863;55.766;37.672;2023-08-06T07:12:38;6.43;;;4.10;;
61905;SDS011;47863;55.766;37.672;2023-08-06T07:15:05;6.40;;;3.45;;
61905;SDS011;47863;55.766;37.672;2023-08-06T07:17:31;5.78;;;3.85;;
61905;SDS011;47863;55.766;37.672;2023-08-06T07:19:57;6.90;;;4.22;;
61905;SDS011;47863;55.766;37.672;2023-08-06T07:22:23;6.97;;;3.95;;
61905;SDS011;47863;55.766;37.672;2023-08-06T07:24:48;6.35;;;3.97;;
61905;SDS011;47863;55.766;37.672;2023-08-06T07:27:14;6.18;;;3.60;;
61905;SDS011;47863;55.766;37.672;2023-08-06T07:29:39;8.82;;;4.43;;
61905;SDS011;47863;55.766;37.672;2023-08-06T07:32:06;11.85;;;4.68;;
61905;SDS011;47863;55.766;37.672;2023-08-06T07:34:32;6.05;;;3.72;;
61905;SDS011;47863;55.766;37.672;2023-08-06T07:36:58;6.60;;;4.13;;
61905;SDS011;47863;55.766;37.672;2023-08-06T07:39:23;6.70;;;3.63;;
61905;SDS011;47863;55.766;37.672;2023-08-06T07:41:49;8.18;;;4.05;;
61905;SDS011;47863;55.766;37.672;2023-08-06T07:44:15;6.35;;;4.05;;
61905;SDS011;47863;55.766;37.672;2023-08-06T07:46:40;5.93;;;4.20;;
61905;SDS011;47863;55.766;37.672;2023-08-06T07:49:06;4.47;;;3.72;;
61905;SDS011;47863;55.766;37.672;2023-08-06T07:51:32;8.02;;;4.63;;
61905;SDS011;47863;55.766;37.672;2023-08-06T07:53:57;6.93;;;4.03;;
61905;SDS011;47863;55.766;37.672;2023-08-06T07:56:23;8.02;;;4.55;;
61905;SDS011;47863;55.766;37.672;2023-08-06T07:58:48;8.60;;;4.13;;
61905;SDS011;47863;55.766;37.672;2023-08-06T08:01:14;7.05;;;3.70;;
61905;SDS011;47863;55.766;37.672;2023-08-06T08:03:39;12.90;;;5.22;;
61905;SDS011;47863;55.766;37.672;2023-08-06T08:06:05;6.47;;;4.03;;
61905;SDS011;47863;55.766;37.672;2023-08-06T08:08:30;5.95;;;4.43;;
61905;SDS011;47863;55.766;37.672;2023-08-06T08:10:56;6.85;;;3.92;;
61905;SDS011;47863;55.766;37.672;2023-08-06T08:13:24;4.65;;;3.70;;
61905;SDS011;47863;55.766;37.672;2023-08-06T08:15:49;4.10;;;3.38;;
61905;SDS011;47863;55.766;37.672;2023-08-06T08:18:15;8.50;;;4.00;;
61905;SDS011;47863;55.766;37.672;2023-08-06T08:20:41;5.32;;;3.80;;
61905;SDS011;47863;55.766;37.672;2023-08-06T08:23:06;6.18;;;4.22;;
61905;SDS011;47863;55.766;37.672;2023-08-06T08:25:32;6.57;;;3.92;;
61905;SDS011;47863;55.766;37.672;2023-08-06T08:27:59;4.55;;;3.75;;
61905;SDS011;47863;55.766;37.672;2023-08-06T08:30:24;5.75;;;3.80;;
61905;SDS011;47863;55.766;37.672;2023-08-06T08:32:50;5.80;;;3.90;;
61905;SDS011;47863;55.766;37.672;2023-08-06T08:35:16;6.75;;;4.50;;
61905;SDS011;47863;55.766;37.672;2023-08-06T08:37:42;6.80;;;4.47;;
61905;SDS011;47863;55.766;37.672;2023-08-06T08:40:09;5.20;;;4.15;;
61905;SDS011;47863;55.766;37.672;2023-08-06T08:42:36;5.68;;;4.93;;
61905;SDS011;47863;55.766;37.672;2023-08-06T08:45:02;5.55;;;4.05;;
61905;SDS011;47863;55.766;37.672;2023-08-06T08:47:30;7.20;;;4.15;;
61905;SDS011;47863;55.766;37.672;2023-08-06T08:49:57;5.13;;;4.10;;
61905;SDS011;47863;55.766;37.672;2023-08-06T08:52:23;6.85;;;4.32;;
61905;SDS011;47863;55.766;37.672;2023-08-06T08:54:50;5.95;;;4.38;;
61905;SDS011;47863;55.766;37.672;2023-08-06T08:57:18;6.55;;;4.70;;
61905;SDS011;47863;55.766;37.672;2023-08-06T08:59:44;6.97;;;4.38;;
61905;SDS011;47863;55.766;37.672;2023-08-06T09:02:13;6.28;;;4.40;;
61905;SDS011;47863;55.766;37.672;2023-08-06T09:04:40;5.63;;;4.53;;
61905;SDS011;47863;55.766;37.672;2023-08-06T09:07:08;7.15;;;4.53;;
61905;SDS011;47863;55.766;37.672;2023-08-06T09:09:35;6.57;;;4.75;;
61905;SDS011;47863;55.766;37.672;2023-08-06T09:12:12;7.18;;;4.72;;
61905;SDS011;47863;55.766;37.672;2023-08-06T09:14:39;5.38;;;4.35;;
61905;SDS011;47863;55.766;37.672;2023-08-06T09:17:05;7.75;;;5.30;;
61905;SDS011;47863;55.766;37.672;2023-08-06T09:19:31;8.75;;;4.60;;
61905;SDS011;47863;55.766;37.672;2023-08-06T09:21:58;4.85;;;4.22;;
61905;SDS011;47863;55.766;37.672;2023-08-06T09:24:24;5.35;;;4.60;;
61905;SDS011;47863;55.766;37.672;2023-08-06T09:26:51;6.25;;;4.32;;
61905;SDS011;47863;55.766;37.672;2023-08-06T09:29:17;7.25;;;3.88;;
61905;SDS011;47863;55.766;37.672;2023-08-06T09:31:44;6.72;;;4.28;;
61905;SDS011;47863;55.766;37.672;2023-08-06T09:34:20;6.85;;;4.28;;
61905;SDS011;47863;55.766;37.672;2023-08-06T09:36:48;7.60;;;4.50;;
61905;SDS011;47863;55.766;37.672;2023-08-06T09:39:22;5.47;;;3.42;;
61905;SDS011;47863;55.766;37.672;2023-08-06T09:41:55;5.72;;;4.30;;
61905;SDS011;47863;55.766;37.672;2023-08-06T09:44:22;4.68;;;3.65;;
61905;SDS011;47863;55.766;37.672;2023-08-06T09:46:49;4.60;;;3.72;;
61905;SDS011;47863;55.766;37.672;2023-08-06T09:49:17;5.60;;;3.40;;
61905;SDS011;47863;55.766;37.672;2023-08-06T09:51:44;5.28;;;3.78;;
61905;SDS011;47863;55.766;37.672;2023-08-06T09:54:13;5.15;;;4.15;;
61905;SDS011;47863;55.766;37.672;2023-08-06T09:56:41;4.75;;;4.05;;
61905;SDS011;47863;55.766;37.672;2023-08-06T09:59:08;6.50;;;3.58;;
61905;SDS011;47863;55.766;37.672;2023-08-06T10:01:34;8.85;;;4.03;;
61905;SDS011;47863;55.766;37.672;2023-08-06T10:04:04;6.47;;;4.07;;
61905;SDS011;47863;55.766;37.672;2023-08-06T10:06:35;5.07;;;4.32;;
61905;SDS011;47863;55.766;37.672;2023-08-06T10:09:04;5.50;;;4.05;;
61905;SDS011;47863;55.766;37.672;2023-08-06T10:11:30;5.68;;;5.05;;
61905;SDS011;47863;55.766;37.672;2023-08-06T10:14:10;5.18;;;4.20;;
61905;SDS011;47863;55.766;37.672;2023-08-06T10:16:38;5.60;;;3.80;;
61905;SDS011;47863;55.766;37.672;2023-08-06T10:19:07;5.93;;;4.30;;
61905;SDS011;47863;55.766;37.672;2023-08-06T10:21:34;5.90;;;3.47;;
61905;SDS011;47863;55.766;37.672;2023-08-06T10:24:00;5.00;;;3.75;;
61905;SDS011;47863;55.766;37.672;2023-08-06T10:26:27;6.47;;;4.05;;
61905;SDS011;47863;55.766;37.672;2023-08-06T10:28:54;4.32;;;3.90;;
61905;SDS011;47863;55.766;37.672;2023-08-06T10:31:52;4.60;;;3.95;;
61905;SDS011;47863;55.766;37.672;2023-08-06T10:34:18;5.88;;;4.18;;
61905;SDS011;47863;55.766;37.672;2023-08-06T10:36:44;5.15;;;4.38;;
61905;SDS011;47863;55.766;37.672;2023-08-06T10:39:13;5.57;;;4.00;;
61905;SDS011;47863;55.766;37.672;2023-08-06T10:41:39;5.43;;;3.75;;
61905;SDS011;47863;55.766;37.672;2023-08-06T10:44:08;5.18;;;3.95;;
61905;SDS011;47863;55.766;37.672;2023-08-06T10:46:35;4.90;;;4.22;;
61905;SDS011;47863;55.766;37.672;2023-08-06T10:49:01;5.25;;;4.40;;
61905;SDS011;47863;55.766;37.672;2023-08-06T10:51:27;4.97;;;3.90;;
61905;SDS011;47863;55.766;37.672;2023-08-06T10:53:53;5.13;;;3.97;;
61905;SDS011;47863;55.766;37.672;2023-08-06T10:56:20;5.85;;;3.78;;
61905;SDS011;47863;55.766;37.672;2023-08-06T10:58:51;7.03;;;3.88;;
61905;SDS011;47863;55.766;37.672;2023-08-06T11:01:19;6.63;;;4.15;;
61905;SDS011;47863;55.766;37.672;2023-08-06T11:03:45;4.75;;;4.22;;
61905;SDS011;47863;55.766;37.672;2023-08-06T11:06:19;4.47;;;3.50;;
61905;SDS011;47863;55.766;37.672;2023-08-06T11:08:52;5.28;;;4.07;;
61905;SDS011;47863;55.766;37.672;2023-08-06T11:11:19;6.50;;;4.90;;
61905;SDS011;47863;55.766;37.672;2023-08-06T11:13:49;4.13;;;3.53;;
61905;SDS011;47863;55.766;37.672;2023-08-06T11:16:17;5.32;;;3.95;;
61905;SDS011;47863;55.766;37.672;2023-08-06T11:18:44;6.82;;;4.68;;
61905;SDS011;47863;55.766;37.672;2023-08-06T11:21:10;5.22;;;3.83;;
61905;SDS011;47863;55.766;37.672;2023-08-06T11:23:39;5.13;;;4.38;;
61905;SDS011;47863;55.766;37.672;2023-08-06T11:26:05;6.70;;;3.95;;
61905;SDS011;47863;55.766;37.672;2023-08-06T11:28:32;4.82;;;3.95;;
61905;SDS011;47863;55.766;37.672;2023-08-06T11:30:58;5.40;;;4.85;;
61905;SDS011;47863;55.766;37.672;2023-08-06T11:33:27;5.80;;;4.00;;
61905;SDS011;47863;55.766;37.672;2023-08-06T11:35:57;6.55;;;4.15;;
61905;SDS011;47863;55.766;37.672;2023-08-06T11:38:28;7.00;;;4.43;;
61905;SDS011;47863;55.766;37.672;2023-08-06T11:40:54;4.85;;;3.55;;
61905;SDS011;47863;55.766;37.672;2023-08-06T11:43:21;4.80;;;4.00;;
61905;SDS011;47863;55.766;37.672;2023-08-06T11:45:48;5.80;;;3.78;;
61905;SDS011;47863;55.766;37.672;2023-08-06T11:48:15;7.38;;;4.40;;
61905;SDS011;47863;55.766;37.672;2023-08-06T11:50:42;6.10;;;4.40;;
61905;SDS011;47863;55.766;37.672;2023-08-06T11:53:11;5.55;;;4.13;;
61905;SDS011;47863;55.766;37.672;2023-08-06T11:55:38;5.63;;;4.15;;
61905;SDS011;47863;55.766;37.672;2023-08-06T11:58:04;7.45;;;4.03;;
61905;SDS011;47863;55.766;37.672;2023-08-06T12:00:30;6.15;;;4.15;;
61905;SDS011;47863;55.766;37.672;2023-08-06T12:02:57;7.15;;;3.88;;
61905;SDS011;47863;55.766;37.672;2023-08-06T12:05:23;7.10;;;3.92;;
61905;SDS011;47863;55.766;37.672;2023-08-06T12:07:57;4.43;;;3.60;;
61905;SDS011;47863;55.766;37.672;2023-08-06T12:10:25;7.50;;;4.18;;
61905;SDS011;47863;55.766;37.672;2023-08-06T12:12:52;8.23;;;4.00;;
61905;SDS011;47863;55.766;37.672;2023-08-06T12:15:19;5.93;;;3.88;;
61905;SDS011;47863;55.766;37.672;2023-08-06T12:17:45;4.40;;;3.70;;
61905;SDS011;47863;55.766;37.672;2023-08-06T12:20:11;5.18;;;3.80;;
61905;SDS011;47863;55.766;37.672;2023-08-06T12:22:37;8.52;;;4.20;;
61905;SDS011;47863;55.766;37.672;2023-08-06T12:25:08;7.72;;;4.32;;
61905;SDS011;47863;55.766;37.672;2023-08-06T12:27:37;4.78;;;4.28;;
61905;SDS011;47863;55.766;37.672;2023-08-06T12:30:05;5.60;;;3.80;;
61905;SDS011;47863;55.766;37.672;2023-08-06T12:32:34;5.78;;;3.70;;
61905;SDS011;47863;55.766;37.672;2023-08-06T12:35:00;4.93;;;3.88;;
61905;SDS011;47863;55.766;37.672;2023-08-06T12:37:33;5.47;;;4.00;;
61905;SDS011;47863;55.766;37.672;2023-08-06T12:39:58;6.90;;;3.90;;
61905;SDS011;47863;55.766;37.672;2023-08-06T12:42:24;6.63;;;4.13;;
61905;SDS011;47863;55.766;37.672;2023-08-06T12:44:50;4.82;;;3.40;;
61905;SDS011;47863;55.766;37.672;2023-08-06T12:47:16;6.32;;;4.07;;
61905;SDS011;47863;55.766;37.672;2023-08-06T12:49:42;5.97;;;4.13;;
61905;SDS011;47863;55.766;37.672;2023-08-06T12:52:08;5.93;;;4.40;;
61905;SDS011;47863;55.766;37.672;2023-08-06T12:54:35;4.82;;;3.50;;
61905;SDS011;47863;55.766;37.672;2023-08-06T12:57:04;6.88;;;4.13;;
61905;SDS011;47863;55.766;37.672;2023-08-06T12:59:30;4.57;;;3.40;;
61905;SDS011;47863;55.766;37.672;2023-08-06T13:01:56;6.07;;;4.07;;
61905;SDS011;47863;55.766;37.672;2023-08-06T13:04:22;5.10;;;3.40;;
61905;SDS011;47863;55.766;37.672;2023-08-06T13:06:48;7.82;;;3.88;;
61905;SDS011;47863;55.766;37.672;2023-08-06T13:09:14;4.47;;;3.42;;
61905;SDS011;47863;55.766;37.672;2023-08-06T13:11:40;6.40;;;3.67;;
61905;SDS011;47863;55.766;37.672;2023-08-06T13:14:10;4.90;;;3.50;;
61905;SDS011;47863;55.766;37.672;2023-08-06T13:16:37;7.30;;;3.55;;
61905;SDS011;47863;55.766;37.672;2023-08-06T13:19:04;6.07;;;3.53;;
61905;SDS011;47863;55.766;37.672;2023-08-06T13:21:31;6.45;;;3.75;;
61905;SDS011;47863;55.766;37.672;2023-08-06T13:24:03;7.68;;;3.95;;
61905;SDS011;47863;55.766;37.672;2023-08-06T13:26:29;6.43;;;3.95;;
61905;SDS011;47863;55.766;37.672;2023-08-06T13:28:59;7.45;;;4.40;;
61905;SDS011;47863;55.766;37.672;2023-08-06T13:31:25;6.18;;;4.05;;
61905;SDS011;47863;55.766;37.672;2023-08-06T13:33:54;7.45;;;4.40;;
61905;SDS011;47863;55.766;37.672;2023-08-06T13:36:21;5.47;;;4.20;;
61905;SDS011;47863;55.766;37.672;2023-08-06T13:38:48;7.45;;;3.83;;
61905;SDS011;47863;55.766;37.672;2023-08-06T13:41:14;6.82;;;3.90;;
61905;SDS011;47863;55.766;37.672;2023-08-06T13:43:40;5.82;;;4.25;;
61905;SDS011;47863;55.766;37.672;2023-08-06T13:46:05;5.35;;;3.85;;
61905;SDS011;47863;55.766;37.672;2023-08-06T13:48:31;6.15;;;3.97;;
61905;SDS011;47863;55.766;37.672;2023-08-06T13:50:56;4.53;;;3.50;;
61905;SDS011;47863;55.766;37.672;2023-08-06T13:53:22;5.38;;;3.50;;
61905;SDS011;47863;55.766;37.672;2023-08-06T13:55:48;5.70;;;3.80;;
61905;SDS011;47863;55.766;37.672;2023-08-06T13:58:13;5.43;;;3.85;;
61905;SDS011;47863;55.766;37.672;2023-08-06T14:00:39;8.00;;;4.07;;
61905;SDS011;47863;55.766;37.672;2023-08-06T14:03:04;7.95;;;4.30;;
61905;SDS011;47863;55.766;37.672;2023-08-06T14:05:30;7.15;;;4.35;;
61905;SDS011;47863;55.766;37.672;2023-08-06T14:07:55;9.07;;;4.25;;
61905;SDS011;47863;55.766;37.672;2023-08-06T14:10:21;6.88;;;4.63;;
61905;SDS011;47863;55.766;37.672;2023-08-06T14:12:47;9.70;;;4.88;;
61905;SDS011;47863;55.766;37.672;2023-08-06T14:15:12;5.90;;;4.22;;
61905;SDS011;47863;55.766;37.672;2023-08-06T14:17:38;7.32;;;4.40;;
61905;SDS011;47863;55.766;37.672;2023-08-06T14:20:05;7.00;;;4.15;;
61905;SDS011;47863;55.766;37.672;2023-08-06T14:22:33;8.30;;;4.13;;
61905;SDS011;47863;55.766;37.672;2023-08-06T14:24:58;7.22;;;4.18;;
61905;SDS011;47863;55.766;37.672;2023-08-06T14:27:24;6.18;;;4.05;;
61905;SDS011;47863;55.766;37.672;2023-08-06T14:29:50;5.60;;;4.20;;
61905;SDS011;47863;55.766;37.672;2023-08-06T14:32:16;4.68;;;4.05;;
61905;SDS011;47863;55.766;37.672;2023-08-06T14:34:43;6.28;;;4.38;;
61905;SDS011;47863;55.766;37.672;2023-08-06T14:37:10;6.05;;;4.20;;